San Carlos, Texas
Current Conditions -  °F | °C
As of 10:53 PM on Sunday 21 Dec 2014 (Local Time) from KMFE Reporting Station
Haze Haze  
Wind Chill: 60°   Ceiling: 3000
Heat Index: 60°   Visibility: 5mi
Dew Point: 58°   Wind: 0mph
Humidity: 93%   Direction: NA
Pressure: 29.92"   Gusts: NA
Location:  26.2938°N, 98.1548°W
Report Text: KMFE 220453Z 00000KT 5SM BR OVC030 16/14 A2992 RMK AO2 SLP131 T01560144
Loading
Personal Weather Stations






























Interactive Weather Map New forecast layout! Learn more

10-Day Weather Forecast

Advertisements
Track Severe Weather on mobile